Wetterdaten: Woche 02.01.06 - 08.01.06 (KW1)
Datum Zeit Temperatur Luftfeuchte Luftdruck Niederschlag Wind Richtung Sonne Solar Taupunkt Windchill
02.01.2006 00:00 2.3 C 82 % 1009.9 hPa 0.0 l/m 0.0 km/h (0 Bft) N 0.00 h 0 W/m -0.5 C 2.3 C
02.01.2006 01:00 1.7 C 86 % 1010.6 hPa 0.0 l/m 0.0 km/h (0 Bft) N 0.00 h 0 W/m -0.3 C 1.7 C
02.01.2006 02:00 1.5 C 88 % 1011.1 hPa 0.0 l/m 0.0 km/h (0 Bft) N 0.00 h 0 W/m -0.2 C 1.5 C
02.01.2006 03:00 1.6 C 89 % 1011.9 hPa 0.0 l/m 0.0 km/h (0 Bft) N 0.00 h 0 W/m -0.0 C 1.6 C
02.01.2006 04:00 1.5 C 89 % 1012.1 hPa 0.0 l/m 0.0 km/h (0 Bft) N 0.00 h 0 W/m -0.1 C 1.5 C
02.01.2006 05:00 1.5 C 90 % 1012.4 hPa 0.0 l/m 0.4 km/h (0 Bft) SO 0.00 h 0 W/m -0.0 C 1.5 C
02.01.2006 06:00 1.5 C 90 % 1013.5 hPa 0.0 l/m 0.0 km/h (0 Bft) N 0.00 h 0 W/m 0.0 C 1.5 C
02.01.2006 07:00 1.5 C 91 % 1014.2 hPa 0.0 l/m 0.0 km/h (0 Bft) N 0.00 h 0 W/m 0.1 C 1.5 C
02.01.2006 08:00 1.4 C 91 % 1015.0 hPa 0.0 l/m 0.0 km/h (0 Bft) N 0.00 h 10 W/m 0.1 C 1.4 C
02.01.2006 09:00 1.8 C 91 % 1015.8 hPa 0.0 l/m 0.0 km/h (0 Bft) N 0.00 h 34 W/m 0.5 C 1.8 C
02.01.2006 10:00 2.2 C 88 % 1016.7 hPa 0.0 l/m 0.0 km/h (0 Bft) N 0.00 h 52 W/m 0.4 C 2.2 C
02.01.2006 11:00 2.4 C 90 % 1017.2 hPa 0.3 l/m 0.0 km/h (0 Bft) N 0.00 h 77 W/m 0.9 C 2.4 C
02.01.2006 12:00 3.0 C 87 % 1017.9 hPa 0.0 l/m 0.0 km/h (0 Bft) N 0.00 h 141 W/m 1.1 C 3.0 C
02.01.2006 13:00 3.9 C 80 % 1018.0 hPa 0.0 l/m 0.2 km/h (0 Bft) O-SO 0.80 h 246 W/m 0.8 C 3.9 C
02.01.2006 14:00 4.7 C 70 % 1018.6 hPa 0.0 l/m 0.3 km/h (0 Bft) O-NO 0.00 h 102 W/m -0.4 C 4.7 C
02.01.2006 15:00 4.7 C 61 % 1019.4 hPa 0.0 l/m 0.0 km/h (0 Bft) N 0.00 h 41 W/m -2.1 C 4.7 C
02.01.2006 16:00 4.0 C 58 % 1020.5 hPa 0.0 l/m 0.1 km/h (0 Bft) NO 0.00 h 6 W/m -3.4 C 4.0 C
02.01.2006 17:00 3.6 C 60 % 1021.2 hPa 0.0 l/m 0.4 km/h (0 Bft) N 0.00 h 0 W/m -3.4 C 3.6 C
02.01.2006 18:00 3.4 C 58 % 1022.3 hPa 0.0 l/m 0.0 km/h (0 Bft) N 0.00 h 0 W/m -4.1 C 3.4 C
02.01.2006 19:00 2.8 C 60 % 1022.6 hPa 0.0 l/m 0.0 km/h (0 Bft) N 0.00 h 0 W/m -4.1 C 2.8 C
02.01.2006 20:00 2.1 C 66 % 1023.5 hPa 0.0 l/m 1.1 km/h (1 Bft) N-NO 0.00 h 0 W/m -3.5 C 2.1 C
02.01.2006 21:00 1.6 C 72 % 1023.5 hPa 0.0 l/m 0.0 km/h (0 Bft) N 0.00 h 0 W/m -2.9 C 1.6 C
02.01.2006 22:00 1.7 C 70 % 1024.3 hPa 0.0 l/m 0.3 km/h (0 Bft) N-NO 0.00 h 0 W/m -3.1 C 1.7 C
02.01.2006 23:00 1.5 C 72 % 1024.6 hPa 0.0 l/m 0.0 km/h (0 Bft) N 0.00 h 0 W/m -3.0 C 1.5 C
03.01.2006 00:00 1.3 C 74 % 1024.6 hPa 0.0 l/m 1.2 km/h (1 Bft) N-NO 0.00 h 0 W/m -2.8 C 1.0 C
03.01.2006 01:00 1.0 C 76 % 1024.7 hPa 0.0 l/m 0.4 km/h (0 Bft) N-NO 0.00 h 0 W/m -2.7 C 1.0 C
03.01.2006 02:00 0.8 C 80 % 1025.8 hPa 0.0 l/m 0.0 km/h (0 Bft) N 0.00 h 0 W/m -2.3 C 0.8 C
03.01.2006 03:00 0.6 C 84 % 1025.8 hPa 0.0 l/m 0.0 km/h (0 Bft) N 0.00 h 0 W/m -1.8 C 0.6 C
03.01.2006 04:00 0.4 C 86 % 1025.8 hPa 0.0 l/m 0.0 km/h (0 Bft) N 0.00 h 0 W/m -1.8 C 0.4 C
03.01.2006 05:00 0.2 C 85 % 1026.2 hPa 0.0 l/m 0.4 km/h (0 Bft) N-NO 0.00 h 0 W/m -2.0 C 0.2 C
03.01.2006 06:00 0.2 C 86 % 1026.9 hPa 0.0 l/m 0.0 km/h (0 Bft) N 0.00 h 0 W/m -1.8 C 0.2 C
03.01.2006 07:00 -0.5 C 86 % 1027.0 hPa 0.0 l/m 0.0 km/h (0 Bft) N 0.00 h 0 W/m -2.5 C -0.5 C
03.01.2006 08:00 -1.4 C 88 % 1027.4 hPa 0.0 l/m 2.2 km/h (1 Bft) N-NO 0.00 h 20 W/m -3.2 C -1.8 C
03.01.2006 09:00 -0.9 C 90 % 1028.1 hPa 0.0 l/m 0.0 km/h (0 Bft) N 0.00 h 66 W/m -2.3 C -0.9 C
03.01.2006 10:00 0.6 C 85 % 1028.6 hPa 0.0 l/m 0.0 km/h (0 Bft) N 0.20 h 151 W/m -1.6 C 0.6 C
03.01.2006 11:00 1.5 C 79 % 1028.5 hPa 0.0 l/m 1.0 km/h (0 Bft) N-NO 0.45 h 262 W/m -1.7 C 1.5 C
03.01.2006 12:00 3.2 C 68 % 1027.5 hPa 0.0 l/m 1.1 km/h (0 Bft) N 0.65 h 256 W/m -2.0 C 3.0 C
03.01.2006 13:00 4.5 C 60 % 1027.3 hPa 0.0 l/m 2.6 km/h (1 Bft) NO 0.15 h 187 W/m -2.6 C 4.1 C
03.01.2006 14:00 4.3 C 60 % 1027.3 hPa 0.0 l/m 1.6 km/h (1 Bft) N-NO 0.00 h 111 W/m -2.8 C 4.1 C
03.01.2006 15:00 3.8 C 62 % 1027.4 hPa 0.0 l/m 2.9 km/h (1 Bft) O-SO 0.00 h 50 W/m -2.8 C 3.2 C
03.01.2006 16:00 2.9 C 63 % 1028.6 hPa 0.0 l/m 2.8 km/h (1 Bft) O-SO 0.00 h 16 W/m -3.3 C 2.4 C
03.01.2006 17:00 2.2 C 69 % 1028.7 hPa 0.0 l/m 0.0 km/h (0 Bft) N 0.00 h 0 W/m -2.9 C 2.2 C
03.01.2006 18:00 2.1 C 70 % 1028.7 hPa 0.0 l/m 0.0 km/h (0 Bft) N 0.00 h 0 W/m -2.7 C 2.1 C
03.01.2006 19:00 1.7 C 73 % 1028.7 hPa 0.0 l/m 0.0 km/h (0 Bft) N 0.00 h 0 W/m -2.7 C 1.7 C
03.01.2006 20:00 1.8 C 72 % 1028.8 hPa 0.0 l/m 0.0 km/h (0 Bft) N 0.00 h 0 W/m -2.7 C 1.8 C
03.01.2006 21:00 1.5 C 74 % 1028.8 hPa 0.0 l/m 0.0 km/h (0 Bft) N 0.00 h 0 W/m -2.6 C 1.5 C
03.01.2006 22:00 0.7 C 77 % 1028.9 hPa 0.0 l/m 1.9 km/h (1 Bft) O 0.00 h 0 W/m -2.8 C 0.1 C
03.01.2006 23:00 -1.0 C 83 % 1029.1 hPa 0.0 l/m 1.0 km/h (0 Bft) O-SO 0.00 h 0 W/m -3.6 C -1.2 C
04.01.2006 00:00 -1.2 C 84 % 1028.9 hPa 0.0 l/m 0.0 km/h (0 Bft) N 0.00 h 0 W/m -3.6 C -1.2 C
04.01.2006 01:00 -1.5 C 89 % 1028.2 hPa 0.0 l/m 0.0 km/h (0 Bft) N 0.00 h 0 W/m -3.1 C -1.5 C
04.01.2006 02:00 -2.0 C 90 % 1028.2 hPa 0.0 l/m 0.4 km/h (0 Bft) O-SO 0.00 h 0 W/m -3.4 C -2.0 C
04.01.2006 03:00 -2.6 C 90 % 1028.3 hPa 0.0 l/m 0.8 km/h (0 Bft) O-SO 0.00 h 0 W/m -4.0 C -2.6 C
04.01.2006 04:00 -2.8 C 90 % 1028.4 hPa 0.0 l/m 0.4 km/h (0 Bft) O-SO 0.00 h 0 W/m -4.2 C -2.8 C
04.01.2006 05:00 -2.0 C 92 % 1027.9 hPa 0.0 l/m 1.0 km/h (0 Bft) O-SO 0.00 h 0 W/m -3.1 C -2.3 C
04.01.2006 06:00 -1.4 C 92 % 1027.1 hPa 0.0 l/m 0.3 km/h (0 Bft) O-SO 0.00 h 0 W/m -2.6 C -1.5 C
04.01.2006 07:00 -1.1 C 84 % 1027.1 hPa 0.0 l/m 0.2 km/h (0 Bft) N-NO 0.00 h 0 W/m -3.6 C -1.1 C
04.01.2006 08:00 -0.2 C 82 % 1026.9 hPa 0.0 l/m 0.3 km/h (0 Bft) NO 0.00 h 7 W/m -2.9 C -0.2 C
04.01.2006 09:00 0.6 C 76 % 1026.8 hPa 0.0 l/m 0.6 km/h (0 Bft) N-NO 0.00 h 37 W/m -3.3 C 0.5 C
04.01.2006 10:00 0.7 C 67 % 1026.8 hPa 0.0 l/m 3.8 km/h (1 Bft) N-NO 0.10 h 119 W/m -4.7 C -0.3 C
04.01.2006 11:00 2.1 C 59 % 1025.9 hPa 0.0 l/m 13.8 km/h (3 Bft) O 0.73 h 334 W/m -5.1 C -1.4 C
04.01.2006 12:00 2.2 C 56 % 1025.1 hPa 0.0 l/m 14.7 km/h (3 Bft) O 0.37 h 206 W/m -5.7 C -1.5 C
04.01.2006 13:00 2.1 C 55 % 1024.0 hPa 0.0 l/m 11.0 km/h (2 Bft) O-SO 0.00 h 96 W/m -5.9 C -0.6 C
04.01.2006 14:00 2.0 C 57 % 1023.5 hPa 0.0 l/m 6.1 km/h (2 Bft) O 0.00 h 44 W/m -5.6 C 0.4 C
04.01.2006 15:00 1.7 C 59 % 1023.5 hPa 0.0 l/m 3.1 km/h (1 Bft) NO 0.00 h 28 W/m -5.3 C 1.1 C
04.01.2006 16:00 1.4 C 61 % 1023.6 hPa 0.0 l/m 2.4 km/h (1 Bft) NO 0.00 h 3 W/m -5.2 C 0.8 C
04.01.2006 17:00 1.2 C 61 % 1023.6 hPa 0.0 l/m 1.9 km/h (1 Bft) O-SO 0.00 h 0 W/m -5.5 C 0.9 C
04.01.2006 18:00 1.3 C 60 % 1022.6 hPa 0.0 l/m 1.8 km/h (1 Bft) N-NO 0.00 h 0 W/m -5.5 C 1.0 C
04.01.2006 19:00 1.3 C 61 % 1022.6 hPa 0.0 l/m 3.8 km/h (1 Bft) O-NO 0.00 h 0 W/m -5.5 C 0.4 C
04.01.2006 20:00 1.1 C 61 % 1022.1 hPa 0.0 l/m 6.8 km/h (2 Bft) NO 0.00 h 0 W/m -5.7 C -0.8 C
04.01.2006 21:00 0.8 C 63 % 1021.5 hPa 0.0 l/m 3.6 km/h (1 Bft) O 0.00 h 0 W/m -5.5 C -0.0 C
04.01.2006 22:00 0.6 C 64 % 1020.6 hPa 0.0 l/m 2.6 km/h (1 Bft) O 0.00 h 0 W/m -5.4 C -0.1 C
04.01.2006 23:00 0.4 C 65 % 1020.2 hPa 0.0 l/m 1.3 km/h (1 Bft) NO 0.00 h 0 W/m -5.4 C 0.1 C
05.01.2006 00:00 0.4 C 66 % 1019.6 hPa 0.0 l/m 2.7 km/h (1 Bft) O-NO 0.00 h 0 W/m -5.3 C -0.3 C
05.01.2006 01:00 0.4 C 67 % 1019.5 hPa 0.0 l/m 1.2 km/h (1 Bft) NO 0.00 h 0 W/m -4.9 C 0.2 C
05.01.2006 02:00 0.3 C 69 % 1018.7 hPa 0.0 l/m 1.6 km/h (1 Bft) N-NO 0.00 h 0 W/m -4.7 C -0.0 C
05.01.2006 03:00 -0.6 C 71 % 1018.7 hPa 0.0 l/m 0.4 km/h (0 Bft) NO 0.00 h 0 W/m -5.1 C -0.6 C
05.01.2006 04:00 -1.2 C 73 % 1018.8 hPa 0.0 l/m 0.1 km/h (0 Bft) N 0.00 h 0 W/m -5.3 C -1.2 C
05.01.2006 05:00 -1.9 C 77 % 1018.5 hPa 0.0 l/m 0.0 km/h (0 Bft) N 0.00 h 0 W/m -5.4 C -1.9 C
05.01.2006 06:00 -2.8 C 80 % 1018.0 hPa 0.0 l/m 0.0 km/h (0 Bft) N 0.00 h 0 W/m -5.8 C -2.8 C
05.01.2006 07:00 -3.8 C 82 % 1018.1 hPa 0.0 l/m 0.0 km/h (0 Bft) N 0.00 h 0 W/m -6.4 C -3.8 C
05.01.2006 08:00 -4.0 C 85 % 1018.1 hPa 0.0 l/m 0.0 km/h (0 Bft) N 0.03 h 23 W/m -6.2 C -4.0 C
05.01.2006 09:00 -2.4 C 84 % 1017.9 hPa 0.0 l/m 0.0 km/h (0 Bft) N 0.52 h 114 W/m -4.8 C -2.4 C
05.01.2006 10:00 -0.6 C 72 % 1017.8 hPa 0.0 l/m 2.3 km/h (1 Bft) O-SO 0.62 h 185 W/m -5.1 C -1.1 C
05.01.2006 11:00 1.0 C 59 % 1017.4 hPa 0.0 l/m 12.0 km/h (2 Bft) O 0.70 h 282 W/m -6.0 C -2.3 C
05.01.2006 12:00 1.7 C 56 % 1016.9 hPa 0.0 l/m 20.7 km/h (4 Bft) O-SO 0.98 h 370 W/m -6.2 C -3.2 C
05.01.2006 13:00 2.4 C 54 % 1016.2 hPa 0.0 l/m 14.6 km/h (3 Bft) O-SO 1.00 h 344 W/m -6.1 C -1.3 C
05.01.2006 14:00 2.4 C 53 % 1016.2 hPa 0.0 l/m 15.5 km/h (3 Bft) O-SO 1.02 h 279 W/m -6.2 C -1.4 C
05.01.2006 15:00 1.8 C 55 % 1016.2 hPa 0.0 l/m 7.5 km/h (2 Bft) O-SO 1.00 h 161 W/m -6.3 C -0.2 C
05.01.2006 16:00 0.3 C 61 % 1016.5 hPa 0.0 l/m 8.4 km/h (2 Bft) O-SO 0.27 h 33 W/m -6.3 C -2.4 C
05.01.2006 17:00 -1.2 C 68 % 1016.7 hPa 0.0 l/m 4.5 km/h (1 Bft) O-SO 0.00 h 0 W/m -6.4 C -2.6 C
05.01.2006 18:00 -1.9 C 71 % 1017.2 hPa 0.0 l/m 0.1 km/h (0 Bft) N 0.00 h 0 W/m -6.5 C -1.9 C
05.01.2006 19:00 -2.8 C 74 % 1017.2 hPa 0.0 l/m 0.0 km/h (0 Bft) N 0.00 h 0 W/m -6.8 C -2.8 C
05.01.2006 20:00 -3.2 C 78 % 1017.0 hPa 0.0 l/m 0.3 km/h (0 Bft) NO 0.00 h 0 W/m -6.5 C -3.2 C
05.01.2006 21:00 -3.1 C 74 % 1017.4 hPa 0.0 l/m 0.0 km/h (0 Bft) N 0.00 h 0 W/m -7.0 C -3.1 C
05.01.2006 22:00 -4.3 C 79 % 1018.2 hPa 0.0 l/m 0.6 km/h (0 Bft) N-NO 0.00 h 0 W/m -7.4 C -4.3 C
05.01.2006 23:00 -3.5 C 81 % 1018.1 hPa 0.0 l/m 2.1 km/h (1 Bft) O-SO 0.00 h 0 W/m -6.3 C -4.2 C
06.01.2006 00:00 -3.5 C 76 % 1018.1 hPa 0.0 l/m 0.0 km/h (0 Bft) N 0.00 h 0 W/m -7.1 C -3.5 C
06.01.2006 01:00 -3.1 C 76 % 1018.0 hPa 0.0 l/m 0.0 km/h (0 Bft) N 0.00 h 0 W/m -6.6 C -3.1 C
06.01.2006 02:00 -3.0 C 77 % 1019.0 hPa 0.0 l/m 0.1 km/h (0 Bft) N 0.00 h 0 W/m -6.5 C -3.0 C
06.01.2006 03:00 -2.9 C 76 % 1019.0 hPa 0.0 l/m 0.0 km/h (0 Bft) N 0.00 h 0 W/m -6.6 C -2.9 C
06.01.2006 04:00 -2.8 C 73 % 1018.0 hPa 0.0 l/m 0.2 km/h (0 Bft) O-SO 0.00 h 0 W/m -7.0 C -2.8 C
06.01.2006 05:00 -2.7 C 73 % 1018.0 hPa 0.0 l/m 0.1 km/h (0 Bft) N 0.00 h 0 W/m -6.9 C -2.7 C
06.01.2006 06:00 -2.9 C 72 % 1019.0 hPa 0.0 l/m 0.0 km/h (0 Bft) N 0.00 h 0 W/m -7.2 C -2.9 C
06.01.2006 07:00 -3.1 C 72 % 1019.1 hPa 0.0 l/m 0.0 km/h (0 Bft) N 0.00 h 0 W/m -7.5 C -3.1 C
06.01.2006 08:00 -2.9 C 72 % 1019.5 hPa 0.0 l/m 0.0 km/h (0 Bft) N 0.00 h 7 W/m -7.2 C -2.9 C
06.01.2006 09:00 -2.5 C 71 % 1020.0 hPa 0.0 l/m 0.0 km/h (0 Bft) N 0.00 h 27 W/m -7.0 C -2.5 C
06.01.2006 10:00 -1.9 C 70 % 1020.9 hPa 0.0 l/m 0.1 km/h (0 Bft) N 0.00 h 57 W/m -6.6 C -1.9 C
06.01.2006 11:00 -1.4 C 68 % 1020.9 hPa 0.0 l/m 1.7 km/h (1 Bft) O-SO 0.00 h 87 W/m -6.4 C -2.0 C
06.01.2006 12:00 -1.1 C 66 % 1020.8 hPa 0.0 l/m 4.0 km/h (1 Bft) O-SO 0.00 h 98 W/m -6.5 C -2.3 C
06.01.2006 13:00 -0.9 C 66 % 1020.8 hPa 0.0 l/m 0.6 km/h (0 Bft) O-SO 0.00 h 92 W/m -6.4 C -1.0 C
06.01.2006 14:00 -0.8 C 66 % 1020.8 hPa 0.0 l/m 3.8 km/h (1 Bft) O-SO 0.00 h 94 W/m -6.4 C -2.0 C
06.01.2006 15:00 -1.0 C 67 % 1021.2 hPa 0.0 l/m 9.8 km/h (2 Bft) O-SO 0.00 h 46 W/m -6.3 C -4.2 C
06.01.2006 16:00 -1.4 C 69 % 1021.9 hPa 0.0 l/m 8.5 km/h (2 Bft) O-SO 0.00 h 12 W/m -6.4 C -4.1 C
06.01.2006 17:00 -1.6 C 69 % 1022.0 hPa 0.0 l/m 6.0 km/h (2 Bft) O-SO 0.00 h 0 W/m -6.5 C -3.6 C
06.01.2006 18:00 -1.9 C 71 % 1022.0 hPa 0.0 l/m 12.2 km/h (2 Bft) O-SO 0.00 h 0 W/m -6.5 C -5.8 C
06.01.2006 19:00 -1.9 C 71 % 1022.9 hPa 0.0 l/m 3.9 km/h (1 Bft) O-SO 0.00 h 0 W/m -6.5 C -3.3 C
06.01.2006 20:00 -1.8 C 71 % 1023.0 hPa 0.0 l/m 4.5 km/h (1 Bft) O-SO 0.00 h 0 W/m -6.4 C -3.3 C
06.01.2006 21:00 -1.9 C 71 % 1023.0 hPa 0.0 l/m 6.3 km/h (2 Bft) O-SO 0.00 h 0 W/m -6.4 C -4.1 C
06.01.2006 22:00 -1.9 C 72 % 1023.7 hPa 0.0 l/m 4.8 km/h (1 Bft) O-SO 0.00 h 0 W/m -6.3 C -3.5 C
06.01.2006 23:00 -2.0 C 72 % 1024.1 hPa 0.0 l/m 4.6 km/h (1 Bft) O-SO 0.00 h 0 W/m -6.4 C -3.5 C
07.01.2006 00:00 -2.2 C 72 % 1024.1 hPa 0.0 l/m 3.1 km/h (1 Bft) O-SO 0.00 h 0 W/m -6.5 C -3.2 C
07.01.2006 01:00 -2.2 C 73 % 1024.1 hPa 0.0 l/m 2.6 km/h (1 Bft) O-SO 0.00 h 0 W/m -6.5 C -3.0 C
07.01.2006 02:00 -2.3 C 73 % 1024.1 hPa 0.0 l/m 2.0 km/h (1 Bft) O-SO 0.00 h 0 W/m -6.5 C -2.9 C
07.01.2006 03:00 -2.5 C 73 % 1024.2 hPa 0.0 l/m 3.5 km/h (1 Bft) O-SO 0.00 h 0 W/m -6.6 C -3.7 C
07.01.2006 04:00 -2.8 C 74 % 1024.2 hPa 0.0 l/m 4.9 km/h (1 Bft) O-SO 0.00 h 0 W/m -6.7 C -4.4 C
07.01.2006 05:00 -3.0 C 74 % 1025.3 hPa 0.0 l/m 4.5 km/h (1 Bft) O-SO 0.00 h 0 W/m -6.9 C -4.7 C
07.01.2006 06:00 -3.1 C 75 % 1025.3 hPa 0.0 l/m 1.5 km/h (1 Bft) O-SO 0.00 h 0 W/m -7.0 C -3.5 C
07.01.2006 07:00 -3.2 C 75 % 1025.3 hPa 0.0 l/m 2.2 km/h (1 Bft) O-SO 0.00 h 0 W/m -7.0 C -3.8 C
07.01.2006 08:00 -3.3 C 75 % 1025.7 hPa 0.0 l/m 1.5 km/h (1 Bft) O-SO 0.00 h 9 W/m -7.1 C -3.8 C
07.01.2006 09:00 -3.1 C 74 % 1027.4 hPa 0.0 l/m 2.3 km/h (1 Bft) O-SO 0.00 h 33 W/m -7.1 C -3.8 C
07.01.2006 10:00 -2.8 C 73 % 1027.4 hPa 0.0 l/m 3.3 km/h (1 Bft) O-SO 0.00 h 55 W/m -7.0 C -3.8 C
07.01.2006 11:00 -2.4 C 71 % 1027.3 hPa 0.0 l/m 4.2 km/h (1 Bft) O-SO 0.00 h 69 W/m -6.9 C -3.8 C
07.01.2006 12:00 -1.9 C 70 % 1027.2 hPa 0.0 l/m 6.1 km/h (2 Bft) O-SO 0.00 h 110 W/m -6.7 C -4.0 C
07.01.2006 13:00 -1.7 C 68 % 1026.2 hPa 0.0 l/m 6.4 km/h (2 Bft) O-SO 0.00 h 111 W/m -6.8 C -4.0 C
07.01.2006 14:00 -1.5 C 68 % 1026.1 hPa 0.0 l/m 2.7 km/h (1 Bft) O-SO 0.00 h 78 W/m -6.8 C -2.4 C
07.01.2006 15:00 -1.9 C 69 % 1026.3 hPa 0.0 l/m 6.1 km/h (2 Bft) O-SO 0.00 h 27 W/m -6.8 C -4.0 C
07.01.2006 16:00 -2.1 C 71 % 1026.5 hPa 0.0 l/m 9.8 km/h (2 Bft) O-SO 0.03 h 14 W/m -6.7 C -5.7 C
07.01.2006 17:00 -2.3 C 72 % 1026.7 hPa 0.0 l/m 3.0 km/h (1 Bft) O-SO 0.00 h 0 W/m -6.6 C -3.3 C
07.01.2006 18:00 -2.2 C 73 % 1026.9 hPa 0.0 l/m 3.1 km/h (1 Bft) O-SO 0.00 h 0 W/m -6.5 C -3.2 C
07.01.2006 19:00 -2.4 C 73 % 1027.3 hPa 0.0 l/m 6.3 km/h (2 Bft) O-SO 0.00 h 0 W/m -6.5 C -4.5 C
07.01.2006 20:00 -2.6 C 74 % 1027.3 hPa 0.0 l/m 8.5 km/h (2 Bft) O-SO 0.00 h 0 W/m -6.6 C -5.6 C
07.01.2006 21:00 -3.0 C 74 % 1027.4 hPa 0.0 l/m 8.5 km/h (2 Bft) O-SO 0.00 h 0 W/m -6.9 C -6.1 C
07.01.2006 22:00 -3.1 C 75 % 1027.4 hPa 0.0 l/m 9.2 km/h (2 Bft) O-SO 0.00 h 0 W/m -6.9 C -6.6 C
07.01.2006 23:00 -3.2 C 76 % 1027.4 hPa 0.0 l/m 2.7 km/h (1 Bft) O-SO 0.00 h 0 W/m -6.8 C -4.2 C
08.01.2006 00:00 -3.3 C 75 % 1027.4 hPa 0.0 l/m 0.6 km/h (0 Bft) O-SO 0.00 h 0 W/m -7.0 C -3.5 C
08.01.2006 01:00 -3.3 C 75 % 1027.0 hPa 0.0 l/m 0.1 km/h (0 Bft) N 0.00 h 0 W/m -7.1 C -3.3 C
08.01.2006 02:00 -3.3 C 75 % 1027.1 hPa 0.0 l/m 3.1 km/h (1 Bft) O-SO 0.00 h 0 W/m -7.1 C -4.5 C
08.01.2006 03:00 -3.5 C 75 % 1027.4 hPa 0.0 l/m 3.5 km/h (1 Bft) O-SO 0.00 h 0 W/m -7.3 C -4.8 C
08.01.2006 04:00 -3.6 C 74 % 1027.5 hPa 0.0 l/m 1.0 km/h (0 Bft) O-SO 0.00 h 0 W/m -7.5 C -3.9 C
08.01.2006 05:00 -3.7 C 74 % 1027.5 hPa 0.0 l/m 4.2 km/h (1 Bft) O-SO 0.00 h 0 W/m -7.6 C -5.4 C
08.01.2006 06:00 -3.9 C 75 % 1027.5 hPa 0.0 l/m 1.5 km/h (1 Bft) O-SO 0.00 h 0 W/m -7.7 C -4.2 C
08.01.2006 07:00 -3.9 C 75 % 1028.4 hPa 0.0 l/m 0.3 km/h (0 Bft) O-NO 0.00 h 0 W/m -7.6 C -3.9 C
08.01.2006 08:00 -3.8 C 75 % 1028.5 hPa 0.0 l/m 4.1 km/h (1 Bft) O-SO 0.00 h 7 W/m -7.6 C -5.3 C
08.01.2006 09:00 -3.7 C 74 % 1029.1 hPa 0.0 l/m 3.0 km/h (1 Bft) O-SO 0.00 h 26 W/m -7.7 C -4.8 C
08.01.2006 10:00 -3.3 C 73 % 1029.5 hPa 0.0 l/m 5.4 km/h (1 Bft) O-SO 0.00 h 55 W/m -7.5 C -5.3 C
08.01.2006 11:00 -2.9 C 71 % 1029.4 hPa 0.0 l/m 5.3 km/h (1 Bft) O-SO 0.00 h 84 W/m -7.3 C -4.8 C
08.01.2006 12:00 -2.5 C 70 % 1029.4 hPa 0.0 l/m 5.8 km/h (2 Bft) O-SO 0.00 h 99 W/m -7.2 C -4.5 C
08.01.2006 13:00 -2.3 C 69 % 1029.1 hPa 0.0 l/m 4.8 km/h (1 Bft) O-SO 0.00 h 116 W/m -7.2 C -4.2 C
08.01.2006 14:00 -2.0 C 68 % 1029.1 hPa 0.0 l/m 1.1 km/h (1 Bft) O-SO 0.00 h 87 W/m -7.1 C -2.2 C
08.01.2006 15:00 -2.1 C 69 % 1029.3 hPa 0.0 l/m 5.7 km/h (1 Bft) O-SO 0.00 h 54 W/m -7.0 C -4.2 C
08.01.2006 16:00 -2.5 C 71 % 1029.4 hPa 0.0 l/m 7.8 km/h (2 Bft) O-SO 0.00 h 14 W/m -7.0 C -5.4 C
08.01.2006 17:00 -2.7 C 72 % 1029.4 hPa 0.0 l/m 2.6 km/h (1 Bft) O-SO 0.00 h 0 W/m -7.0 C -3.6 C
08.01.2006 18:00 -2.7 C 73 % 1029.5 hPa 0.0 l/m 2.7 km/h (1 Bft) O-SO 0.00 h 0 W/m -6.9 C -3.6 C
08.01.2006 19:00 -2.8 C 73 % 1030.4 hPa 0.0 l/m 0.1 km/h (0 Bft) N 0.00 h 0 W/m -6.9 C -2.8 C
08.01.2006 20:00 -2.9 C 74 % 1030.5 hPa 0.0 l/m 0.0 km/h (0 Bft) N 0.00 h 0 W/m -6.9 C -2.9 C
08.01.2006 21:00 -3.2 C 74 % 1030.5 hPa 0.0 l/m 1.0 km/h (0 Bft) O-NO 0.00 h 0 W/m -7.2 C -3.5 C
08.01.2006 22:00 -3.4 C 75 % 1030.5 hPa 0.0 l/m 7.3 km/h (2 Bft) O-SO 0.00 h 0 W/m -7.2 C -6.2 C
08.01.2006 23:00 -3.5 C 76 % 1030.6 hPa 0.0 l/m 7.5 km/h (2 Bft) O-SO 0.00 h 0 W/m -7.2 C -6.6 C
Min-Datum _ 05.01.06 05.01.06 02.01.06 - 02.01.06 - - - 05.01.06 08.01.06
_ Min-Zeit 08:17 13:32 00:23 - 00:01 - - - 22:03 05:54
Minimum _ -4.4 C 50 % 1009.9 hPa - 0.0 km/h (0 Bft) - - - -8.0 C -8.9 C
Max-Datum _ 02.01.06 04.01.06 08.01.06 02.01.06 04.01.06 - 05.01.06 04.01.06 02.01.06 02.01.06
_ Max-Zeit 14:29 05:57 23:58 11:09 11:21 - 12:33 11:41 13:13 14:29
Maximum _ 4.9 C 93 % 1030.6 hPa 0.3 l/m 29.8 km/h
O (5 Bft)
- 0.07 h 442 W/m 1.3 C 4.9 C
Durchschnitt _ -0.7 C 73 % 1023.3 hPa #0.3 l/m 2.7 km/h (1 Bft) O-SO #9:37 h 96 W/m -5.0 C -1.5 C
© Kaiko 2006